Time;durP1;ratioP1;P1;durP2;ratioP2;P2;SDS_P1;SDS_P2;PMS_P1;PMS_P2;Temp;Humidity;BMP_temperature;BMP_pressure;BME280_temperature;BME280_humidity;BME280_pressure;Samples;Min_cycle;Max_cycle;Signal;HPM_P1;HPM_P2
2022/06/22 00:01:07;;;;;;;;;10.00;10.00;;;;;19.17;50.34;98395.09;6239503;27;97952;-72
2022/06/22 00:04:17;;;;;;;;;11.00;10.00;;;;;19.12;50.58;98376.03;6236109;27;97021;-70
2022/06/22 00:07:24;;;;;;;;;9.40;9.00;;;;;19.09;50.53;98374.72;6250360;27;97505;-70
2022/06/22 00:10:32;;;;;;;;;9.40;9.00;;;;;19.03;50.75;98375.84;6233889;27;99882;-70
2022/06/22 00:13:36;;;;;;;;;10.40;9.40;;;;;18.92;51.13;98364.22;6256167;27;97957;-70
2022/06/22 00:16:48;;;;;;;;;9.00;9.00;;;;;18.83;51.21;98367.84;6243175;27;96867;-71
2022/06/22 00:19:59;;;;;;;;;10.20;8.80;;;;;18.67;51.98;98374.56;6249491;27;97475;-69
2022/06/22 00:23:24;;;;;;;;;9.00;8.80;;;;;18.57;52.28;98372.72;6260808;27;96681;-71
2022/06/22 00:26:34;;;;;;;;;9.60;9.60;;;;;18.53;52.63;98366.19;6255374;27;96487;-69
2022/06/22 00:29:39;;;;;;;;;9.20;8.00;;;;;18.51;52.70;98379.31;6223249;27;96890;-71
2022/06/22 00:33:10;;;;;;;;;9.00;9.00;;;;;18.48;52.79;98385.31;6258712;27;96742;-72
2022/06/22 00:36:15;;;;;;;;;10.60;9.00;;;;;18.50;52.67;98381.22;6239849;27;99446;-70
2022/06/22 00:39:24;;;;;;;;;8.60;8.60;;;;;18.55;52.67;98386.69;6257087;27;96460;-69
2022/06/22 00:42:38;;;;;;;;;9.00;8.00;;;;;18.52;52.89;98397.31;6260454;27;97512;-71
2022/06/22 00:45:42;;;;;;;;;9.00;8.00;;;;;18.44;52.61;98385.09;6226282;27;97888;-72
2022/06/22 00:48:49;;;;;;;;;9.40;7.40;;;;;18.54;52.65;98398.69;6217843;27;100041;-70
2022/06/22 00:51:52;;;;;;;;;9.60;9.60;;;;;18.54;52.77;98412.34;6261361;27;96528;-70
2022/06/22 00:54:56;;;;;;;;;11.00;9.60;;;;;18.52;52.99;98409.03;6260435;27;97414;-70
2022/06/22 00:58:04;;;;;;;;;9.40;8.00;;;;;18.47;52.87;98413.75;6251751;27;97466;-72
2022/06/22 01:01:18;;;;;;;;;11.00;8.00;;;;;18.41;53.54;98417.59;6242902;27;99534;-70
2022/06/22 01:04:29;;;;;;;;;9.00;9.00;;;;;18.37;53.57;98416.53;6230242;27;97824;-69
2022/06/22 01:07:44;;;;;;;;;7.50;7.50;;;;;18.29;53.86;98430.75;6239094;27;99247;-69
2022/06/22 01:10:55;;;;;;;;;12.00;11.00;;;;;18.20;54.22;98438.75;6244538;27;98433;-71
2022/06/22 01:14:04;;;;;;;;;11.40;10.00;;;;;18.16;54.24;98433.03;6243479;27;97503;-71
2022/06/22 01:17:17;;;;;;;;;9.25;9.00;;;;;18.14;54.22;98434.41;6224094;27;98568;-71
2022/06/22 01:20:31;;;;;;;;;10.00;9.50;;;;;18.21;54.03;98434.09;6260218;27;96723;-71
2022/06/22 01:24:02;;;;;;;;;9.00;9.00;;;;;18.19;54.27;98439.81;6247769;27;96662;-72
2022/06/22 01:27:25;;;;;;;;;8.00;8.00;;;;;18.24;53.89;98437.06;6229072;27;98383;-72
2022/06/22 01:30:34;;;;;;;;;10.00;8.80;;;;;18.19;54.43;98429.72;6245894;27;97459;-70
2022/06/22 01:33:40;;;;;;;;;10.50;9.00;;;;;18.24;53.87;98433.53;6238369;27;98952;-70
2022/06/22 01:36:44;;;;;;;;;9.00;9.00;;;;;18.25;54.11;98425.06;6262335;27;97381;-70
2022/06/22 01:39:47;;;;;;;;;10.00;9.00;;;;;18.27;54.17;98428.34;6239846;27;99421;-72
2022/06/22 01:42:58;;;;;;;;;10.00;9.40;;;;;18.25;54.18;98435.97;6244468;27;96741;-70
2022/06/22 01:46:09;;;;;;;;;9.60;9.00;;;;;18.10;54.89;98439.59;6258287;27;97059;-70
2022/06/22 01:49:18;;;;;;;;;10.00;9.80;;;;;18.12;54.76;98436.59;6242939;27;96815;-72
2022/06/22 01:52:37;;;;;;;;;9.60;9.00;;;;;18.11;54.49;98429.53;6263818;27;97188;-72
2022/06/22 01:55:47;;;;;;;;;11.25;11.00;;;;;18.08;54.83;98446.47;6232996;27;98419;-72
2022/06/22 01:59:00;;;;;;;;;12.00;11.00;;;;;18.09;54.99;98437.97;6263267;27;97485;-71
2022/06/22 02:02:09;;;;;;;;;8.75;8.75;;;;;18.09;55.09;98442.59;6256913;27;97508;-72
2022/06/22 02:05:20;;;;;;;;;9.40;9.00;;;;;18.12;54.93;98445.63;6244738;27;97539;-71
2022/06/22 02:08:28;;;;;;;;;11.00;9.00;;;;;18.05;55.23;98431.44;6258571;27;97250;-72
2022/06/22 02:11:38;;;;;;;;;10.80;9.80;;;;;18.08;54.96;98447.25;6255271;27;97527;-72
2022/06/22 02:14:47;;;;;;;;;9.80;9.00;;;;;18.06;54.97;98446.72;6248017;27;97134;-72
2022/06/22 02:17:52;;;;;;;;;9.67;9.67;;;;;17.95;55.04;98434.22;6254184;27;96848;-70
2022/06/22 02:20:59;;;;;;;;;9.40;9.00;;;;;17.99;55.10;98457.13;6259013;27;96817;-69
2022/06/22 02:24:06;;;;;;;;;8.00;7.00;;;;;17.95;55.49;98447.03;6260089;27;96690;-71
2022/06/22 02:27:13;;;;;;;;;9.40;9.40;;;;;17.88;55.61;98438.38;6263405;27;96578;-72
2022/06/22 02:30:18;;;;;;;;;10.00;10.00;;;;;17.86;55.58;98441.38;6262949;27;98528;-72
2022/06/22 02:33:21;;;;;;;;;8.80;7.80;;;;;17.82;55.67;98439.47;6240189;27;97118;-71
2022/06/22 02:36:30;;;;;;;;;10.00;9.00;;;;;17.77;55.83;98451.22;6249181;27;96998;-69
2022/06/22 02:39:38;;;;;;;;;10.00;9.00;;;;;17.69;56.17;98455.31;6226011;27;97734;-70
2022/06/22 02:46:04;;;;;;;;;10.80;10.00;;;;;17.54;56.91;98454.56;6243118;27;97092;-72
2022/06/22 02:49:12;;;;;;;;;11.00;10.25;;;;;17.54;56.80;98474.44;6240131;27;98518;-72
2022/06/22 02:52:17;;;;;;;;;10.80;9.80;;;;;17.43;57.39;98482.91;6259976;27;96683;-69
2022/06/22 02:55:24;;;;;;;;;11.00;10.00;;;;;17.44;57.41;98490.81;6255443;27;96458;-71
2022/06/22 02:58:30;;;;;;;;;11.67;10.33;;;;;17.32;57.60;98496.56;6262518;27;96698;-69
2022/06/22 03:01:38;;;;;;;;;10.20;10.20;;;;;17.47;57.41;98494.91;6231798;27;97552;-70
2022/06/22 03:04:44;;;;;;;;;9.75;9.00;;;;;17.51;57.46;98498.69;6250199;27;96792;-71
2022/06/22 03:07:51;;;;;;;;;10.00;10.00;;;;;17.54;57.30;98487.25;6262844;27;96444;-72
2022/06/22 03:10:58;;;;;;;;;10.75;9.75;;;;;17.67;57.18;98494.88;6261761;27;97953;-70
2022/06/22 03:14:14;;;;;;;;;10.00;9.00;;;;;17.61;57.01;98495.97;6263013;27;96578;-70
2022/06/22 03:17:22;;;;;;;;;10.00;9.00;;;;;17.73;57.01;98504.69;6262844;27;96441;-70
2022/06/22 03:20:31;;;;;;;;;11.75;10.75;;;;;17.75;56.87;98511.47;6253090;27;97425;-70
2022/06/22 03:23:44;;;;;;;;;11.00;10.33;;;;;17.77;56.75;98507.66;6259640;27;97099;-72
2022/06/22 03:26:56;;;;;;;;;10.00;9.40;;;;;17.66;57.07;98520.50;6250170;27;96548;-72
2022/06/22 03:30:02;;;;;;;;;10.80;9.80;;;;;17.62;57.50;98533.06;6261538;27;97418;-71
2022/06/22 03:33:11;;;;;;;;;11.00;11.00;;;;;17.59;57.77;98526.22;6238049;27;97068;-72
2022/06/22 03:36:20;;;;;;;;;10.00;10.00;;;;;17.68;57.45;98530.06;6242853;27;98506;-72
2022/06/22 03:39:29;;;;;;;;;11.00;10.00;;;;;17.79;57.65;98522.63;6242858;27;98496;-71
2022/06/22 03:42:38;;;;;;;;;11.00;9.00;;;;;17.93;56.99;98518.25;6237427;27;97327;-71
2022/06/22 03:45:47;;;;;;;;;12.00;11.00;;;;;17.97;57.30;98516.59;6232189;27;99485;-71
2022/06/22 03:49:01;;;;;;;;;10.20;10.00;;;;;18.05;56.72;98509.75;6237344;27;98334;-71
2022/06/22 03:52:11;;;;;;;;;12.00;11.40;;;;;18.13;56.75;98492.81;6255899;27;97106;-71
2022/06/22 03:55:19;;;;;;;;;11.00;11.00;;;;;18.11;56.87;98509.44;6235925;27;97131;-70
2022/06/22 03:58:25;;;;;;;;;9.60;9.00;;;;;18.20;58.94;98515.13;6258237;27;98014;-70
2022/06/22 04:01:29;;;;;;;;;10.75;10.75;;;;;18.45;57.98;98500.53;6247498;27;97752;-68
2022/06/22 04:04:34;;;;;;;;;10.00;9.60;;;;;18.58;56.26;98495.28;6234734;27;99540;-70
2022/06/22 04:07:40;;;;;;;;;11.40;11.40;;;;;18.74;55.29;98492.47;6238893;27;98513;-71
2022/06/22 04:10:48;;;;;;;;;12.00;10.40;;;;;18.84;54.93;98492.38;6255385;27;97931;-68
2022/06/22 04:14:00;;;;;;;;;12.00;11.00;;;;;18.95;54.55;98483.03;6237920;27;97381;-68
2022/06/22 04:17:08;;;;;;;;;13.00;12.00;;;;;18.98;54.56;98483.25;6248717;27;97296;-68
2022/06/22 04:20:21;;;;;;;;;11.20;11.00;;;;;19.10;54.28;98485.63;6239820;27;97925;-69
2022/06/22 04:23:32;;;;;;;;;10.50;10.00;;;;;19.18;53.69;98492.38;6253986;27;97435;-69
2022/06/22 04:26:41;;;;;;;;;12.40;11.00;;;;;19.17;53.24;98477.09;6253807;27;97580;-70
2022/06/22 04:29:49;;;;;;;;;10.00;10.00;;;;;19.52;53.34;98506.84;6238519;27;97532;-70
2022/06/22 04:33:03;;;;;;;;;11.00;9.50;;;;;19.55;52.65;98502.72;6241051;27;98052;-70
2022/06/22 04:36:12;;;;;;;;;11.50;10.00;;;;;19.64;52.36;98512.75;6258132;27;97618;-70
2022/06/22 04:39:19;;;;;;;;;10.60;10.60;;;;;19.78;51.86;98512.88;6239771;27;96706;-70
2022/06/22 04:42:23;;;;;;;;;9.00;9.00;;;;;19.75;52.26;98519.72;6257558;27;96716;-71
2022/06/22 04:45:32;;;;;;;;;10.00;9.00;;;;;19.78;52.23;98519.16;6256915;27;96842;-69
2022/06/22 04:48:39;;;;;;;;;12.00;11.00;;;;;19.79;51.93;98525.44;6258513;27;96625;-70
2022/06/22 04:51:48;;;;;;;;;9.00;8.00;;;;;19.99;51.36;98536.13;6261329;27;97496;-70
2022/06/22 04:54:55;;;;;;;;;10.00;9.40;;;;;19.95;51.17;98526.06;6261926;27;97988;-69
2022/06/22 04:58:04;;;;;;;;;11.00;10.00;;;;;20.01;50.98;98524.91;6261063;27;98193;-69
2022/06/22 05:01:08;;;;;;;;;11.60;10.00;;;;;20.15;50.91;98526.66;6236079;27;97026;-68
2022/06/22 05:04:16;;;;;;;;;9.00;8.00;;;;;20.17;50.49;98526.38;6236072;27;98409;-69
2022/06/22 05:07:41;;;;;;;;;12.80;11.20;;;;;20.36;50.82;98527.25;6259965;27;98377;-69
2022/06/22 05:10:48;;;;;;;;;13.00;10.40;;;;;20.43;50.77;98535.91;6225160;27;97754;-68
2022/06/22 05:13:54;;;;;;;;;13.25;10.00;;;;;20.49;49.84;98536.66;6250586;27;97057;-69
2022/06/22 05:17:01;;;;;;;;;11.20;9.20;;;;;20.54;50.46;98547.53;6243992;27;96685;-71
2022/06/22 05:20:17;;;;;;;;;13.00;11.40;;;;;20.53;49.83;98543.97;6221334;27;96838;-69
2022/06/22 05:23:27;;;;;;;;;10.80;10.00;;;;;20.69;49.30;98548.13;6220920;27;98474;-69
2022/06/22 05:26:34;;;;;;;;;11.40;10.00;;;;;20.85;49.62;98565.19;6262298;27;98662;-68
2022/06/22 05:29:42;;;;;;;;;10.50;9.50;;;;;21.00;49.09;98558.66;6226059;27;97148;-69
2022/06/22 05:32:51;;;;;;;;;9.00;9.00;;;;;20.99;47.47;98549.63;6263865;27;97388;-69
2022/06/22 05:35:59;;;;;;;;;11.40;8.00;;;;;20.98;47.76;98560.88;6262314;27;96929;-69
2022/06/22 05:39:11;;;;;;;;;9.00;8.00;;;;;21.09;48.42;98556.88;6220745;27;98527;-70
2022/06/22 05:42:17;;;;;;;;;9.20;9.00;;;;;21.11;47.78;98568.38;6264014;27;97412;-69
2022/06/22 05:45:26;;;;;;;;;10.00;9.00;;;;;21.33;47.56;98568.56;6228522;27;97727;-70
2022/06/22 05:48:33;;;;;;;;;9.00;8.60;;;;;21.42;47.47;98564.03;6253922;27;96732;-69
2022/06/22 05:51:42;;;;;;;;;10.00;9.00;;;;;21.48;46.52;98573.00;6244308;27;96577;-69
2022/06/22 05:54:53;;;;;;;;;9.00;8.00;;;;;21.54;46.48;98567.13;6260685;27;96554;-70
2022/06/22 05:58:02;;;;;;;;;8.00;8.00;;;;;21.72;46.43;98570.91;6262361;27;96889;-70
2022/06/22 06:01:14;;;;;;;;;8.60;8.00;;;;;21.73;45.57;98583.53;6236334;27;96806;-70
2022/06/22 06:04:27;;;;;;;;;8.00;7.00;;;;;21.71;46.05;98571.22;6239171;27;99437;-69
2022/06/22 06:07:33;;;;;;;;;10.00;8.00;;;;;21.85;46.38;98574.78;6239685;27;96734;-70
2022/06/22 06:10:44;;;;;;;;;7.00;7.00;;;;;22.00;45.71;98574.53;6257160;27;96467;-68
2022/06/22 06:13:52;;;;;;;;;6.00;6.00;;;;;22.19;46.16;98555.22;6262453;27;97483;-68
2022/06/22 06:16:59;;;;;;;;;6.00;6.00;;;;;22.40;45.34;98564.69;6261613;27;97665;-68
2022/06/22 06:20:06;;;;;;;;;6.00;5.00;;;;;22.57;43.56;98555.81;6229026;27;98856;-67
2022/06/22 06:23:15;;;;;;;;;6.00;6.00;;;;;22.66;43.25;98556.72;6259420;27;97123;-67
2022/06/22 06:29:56;;;;;;;;;8.00;6.75;;;;;22.75;43.43;98560.38;6227453;27;97763;-69
2022/06/22 06:33:05;;;;;;;;;7.50;7.00;;;;;22.83;43.58;98546.72;6263896;27;96812;-68
2022/06/22 06:36:17;;;;;;;;;8.00;7.00;;;;;23.00;43.68;98546.06;6260347;27;97291;-68
2022/06/22 06:39:24;;;;;;;;;7.00;6.00;;;;;23.12;42.38;98551.81;6225153;27;96741;-69
2022/06/22 06:42:37;;;;;;;;;6.60;6.60;;;;;23.25;42.21;98545.47;6256107;27;97455;-69
2022/06/22 06:45:42;;;;;;;;;6.00;6.00;;;;;23.32;41.55;98551.31;6222026;27;97237;-67
2022/06/22 06:48:59;;;;;;;;;6.80;6.80;;;;;23.49;41.72;98547.91;6262709;27;97543;-67
2022/06/22 06:52:10;;;;;;;;;7.00;5.60;;;;;23.66;41.16;98549.94;6263830;27;96645;-68
2022/06/22 06:55:29;;;;;;;;;4.00;3.75;;;;;23.89;40.48;98565.31;6248161;27;98867;-68
2022/06/22 06:58:42;;;;;;;;;4.00;4.00;;;;;23.98;39.61;98559.84;6248080;27;97720;-68
2022/06/22 07:01:46;;;;;;;;;2.00;2.00;;;;;24.05;38.54;98557.41;6232578;27;96637;-67
2022/06/22 07:04:50;;;;;;;;;4.00;4.00;;;;;24.18;38.26;98553.78;6261175;27;97513;-69
2022/06/22 07:07:59;;;;;;;;;4.00;3.00;;;;;24.37;39.46;98551.59;6242006;27;99527;-67
2022/06/22 07:11:32;;;;;;;;;5.00;4.00;;;;;24.57;38.96;98551.00;6239141;27;96822;-67
2022/06/22 07:14:41;;;;;;;;;4.00;4.00;;;;;24.66;38.39;98531.72;6261141;27;97441;-67
2022/06/22 07:17:49;;;;;;;;;4.60;4.40;;;;;24.76;36.92;98533.34;6227316;27;97790;-67
2022/06/22 07:20:58;;;;;;;;;3.00;3.00;;;;;24.81;37.00;98528.47;6243104;27;97806;-69
2022/06/22 07:24:07;;;;;;;;;3.00;2.60;;;;;24.81;36.21;98530.44;6240673;27;98699;-68
2022/06/22 07:27:20;;;;;;;;;3.00;3.00;;;;;24.94;36.40;98535.81;6245289;27;96615;-67
2022/06/22 07:30:30;;;;;;;;;3.00;3.00;;;;;25.12;35.86;98541.34;6227196;27;97399;-67
2022/06/22 07:33:41;;;;;;;;;3.00;3.00;;;;;25.21;35.22;98539.38;6261164;27;98032;-68
2022/06/22 07:36:48;;;;;;;;;3.00;3.00;;;;;25.05;34.99;98527.22;6258444;27;97677;-68
2022/06/22 07:39:59;;;;;;;;;2.33;2.33;;;;;25.33;36.33;98540.34;6241066;27;96934;-69
2022/06/22 07:43:02;;;;;;;;;3.00;3.00;;;;;25.67;37.03;98525.69;6261328;27;97517;-68
2022/06/22 07:46:10;;;;;;;;;3.00;3.00;;;;;26.04;35.70;98523.28;6243474;27;97681;-68
2022/06/22 07:49:17;;;;;;;;;3.00;3.00;;;;;26.35;34.92;98523.78;6237920;27;96933;-69
2022/06/22 07:52:25;;;;;;;;;3.50;3.00;;;;;26.57;33.24;98525.47;6255144;27;96982;-69
2022/06/22 07:55:39;;;;;;;;;4.20;3.00;;;;;26.76;33.57;98523.06;6263408;27;97172;-68
2022/06/22 07:58:49;;;;;;;;;3.25;3.25;;;;;27.00;33.44;98525.16;6260925;27;96783;-68
2022/06/22 08:01:59;;;;;;;;;3.00;3.00;;;;;27.29;33.31;98519.53;6252385;27;96582;-67
2022/06/22 08:05:07;;;;;;;;;3.20;3.20;;;;;27.28;31.73;98523.44;6255841;27;96360;-67
2022/06/22 08:08:21;;;;;;;;;4.00;3.00;;;;;27.21;31.36;98494.72;6243627;27;96646;-67
2022/06/22 08:11:33;;;;;;;;;5.00;4.00;;;;;27.43;30.78;98514.50;6261397;27;96942;-67
2022/06/22 08:14:44;;;;;;;;;3.40;3.40;;;;;27.42;31.46;98523.13;6234888;27;97393;-69
2022/06/22 08:17:52;;;;;;;;;2.00;2.00;;;;;27.45;30.88;98520.53;6235886;27;96894;-69
2022/06/22 08:20:57;;;;;;;;;3.00;2.40;;;;;27.48;30.94;98528.13;6243817;27;99962;-69
2022/06/22 08:24:03;;;;;;;;;3.40;3.00;;;;;27.74;30.81;98510.47;6264558;27;97589;-69
2022/06/22 08:27:13;;;;;;;;;3.00;3.00;;;;;27.87;30.44;98509.31;6264518;27;96704;-68
2022/06/22 08:30:19;;;;;;;;;4.60;4.60;;;;;28.08;29.54;98507.28;6226709;27;98404;-68
2022/06/22 08:33:31;;;;;;;;;4.00;4.00;;;;;28.34;29.97;98516.09;6265534;27;96541;-69
2022/06/22 08:36:40;;;;;;;;;4.00;3.00;;;;;28.54;28.81;98508.75;6245268;27;96871;-71
2022/06/22 08:39:49;;;;;;;;;3.20;3.20;;;;;28.56;29.02;98512.00;6265964;27;96913;-67
2022/06/22 08:43:02;;;;;;;;;6.00;5.00;;;;;28.70;28.33;98529.09;6263586;27;96702;-69
2022/06/22 08:46:48;;;;;;;;;4.00;3.00;;;;;28.76;27.43;98529.69;6245882;27;97518;-69
2022/06/22 08:50:17;;;;;;;;;2.40;2.40;;;;;28.45;27.49;98530.28;6135324;28;97958;-68
2022/06/22 08:53:38;;;;;;;;;4.60;4.00;;;;;28.66;28.03;98524.59;6159826;28;96599;-68
2022/06/22 08:56:52;;;;;;;;;4.00;4.00;;;;;28.91;28.38;98530.94;6160358;28;96852;-68
2022/06/22 09:00:17;;;;;;;;;5.00;4.50;;;;;29.24;27.91;98529.53;6144605;28;98310;-67
2022/06/22 09:04:08;;;;;;;;;3.00;3.00;;;;;29.50;27.82;98519.97;6142875;28;97189;-70
2022/06/22 09:07:37;;;;;;;;;4.25;3.25;;;;;29.50;26.64;98506.91;6048578;28;97461;-70
2022/06/22 09:11:02;;;;;;;;;2.75;2.00;;;;;29.33;26.87;98515.53;6050602;28;97475;-69
2022/06/22 09:14:38;;;;;;;;;2.00;2.00;;;;;29.43;26.68;98523.34;6038446;28;96850;-68
2022/06/22 09:18:14;;;;;;;;;3.50;3.00;;;;;29.65;27.44;98519.19;6065873;28;97716;-69
2022/06/22 09:21:36;;;;;;;;;2.00;2.00;;;;;30.02;26.88;98517.81;6066762;28;96632;-67
2022/06/22 09:24:55;;;;;;;;;4.00;3.00;;;;;30.00;25.07;98513.78;6061786;28;96920;-66
2022/06/22 09:28:04;;;;;;;;;1.80;1.00;;;;;30.29;25.20;98516.09;6152939;28;96691;-65
2022/06/22 09:31:24;;;;;;;;;2.00;2.00;;;;;30.54;24.52;98520.28;6146243;28;97730;-67
2022/06/22 09:35:12;;;;;;;;;4.00;3.00;;;;;30.77;23.78;98514.88;6147956;28;97481;-68
2022/06/22 09:38:43;;;;;;;;;2.00;2.00;;;;;30.98;24.13;98514.53;6229649;27;96834;-67
2022/06/22 09:42:05;;;;;;;;;3.00;2.00;;;;;31.06;22.63;98510.75;6230704;27;98533;-66
2022/06/22 09:45:29;;;;;;;;;3.00;2.00;;;;;31.12;22.70;98512.06;6261006;27;96641;-68
2022/06/22 09:49:11;;;;;;;;;2.00;2.00;;;;;31.47;23.21;98503.63;6242810;27;97494;-69
2022/06/22 09:52:44;;;;;;;;;4.00;2.00;;;;;31.53;21.62;98506.88;6224395;27;97719;-67
2022/06/22 09:56:24;;;;;;;;;2.00;2.00;;;;;31.40;21.17;98515.44;6236874;27;97431;-68
2022/06/22 09:59:57;;;;;;;;;1.00;1.00;;;;;31.50;21.29;98496.50;6242947;27;96803;-65
2022/06/22 10:03:39;;;;;;;;;2.00;2.00;;;;;31.33;21.17;98475.47;6262789;27;96483;-68
2022/06/22 10:06:58;;;;;;;;;2.00;2.00;;;;;31.54;21.85;98498.16;6261723;27;96580;-67
2022/06/22 10:10:14;;;;;;;;;2.00;2.00;;;;;31.59;21.04;98500.69;6240545;27;96775;-68
2022/06/22 10:13:43;;;;;;;;;2.00;2.00;;;;;31.78;21.09;98492.28;6240126;27;97513;-69
2022/06/22 10:17:14;;;;;;;;;2.00;1.60;;;;;31.99;21.15;98485.47;6264010;27;96675;-68
2022/06/22 10:20:33;;;;;;;;;2.00;2.00;;;;;32.04;20.81;98485.16;6244756;27;96578;-68
2022/06/22 10:23:48;;;;;;;;;1.00;1.00;;;;;31.93;20.77;98482.16;6256586;27;97402;-67
2022/06/22 10:27:13;;;;;;;;;1.00;1.00;;;;;31.98;21.20;98483.84;6264680;27;97945;-69
2022/06/22 10:30:24;;;;;;;;;1.00;1.00;;;;;32.01;20.92;98489.47;6262721;27;97609;-69
2022/06/22 10:33:50;;;;;;;;;1.00;1.00;;;;;32.18;20.38;98483.41;6259456;27;97548;-66
2022/06/22 10:37:12;;;;;;;;;1.00;1.00;;;;;32.37;21.32;98487.28;6213377;27;97428;-67
2022/06/22 10:48:03;;;;;;;;;1.00;1.00;;;;;32.72;19.65;98479.47;6256088;27;96822;-69
2022/06/22 10:51:18;;;;;;;;;1.00;1.00;;;;;32.54;19.17;98456.06;6245251;27;97428;-68
2022/06/22 10:54:34;;;;;;;;;1.00;1.00;;;;;32.69;19.52;98454.31;6261496;27;97742;-67
2022/06/22 10:57:56;;;;;;;;;1.00;1.00;;;;;32.82;20.52;98458.47;6242640;27;97809;-67
2022/06/22 11:01:26;;;;;;;;;1.00;1.00;;;;;33.04;20.24;98458.34;6259513;27;97074;-68
2022/06/22 11:04:59;;;;;;;;;2.00;1.00;;;;;33.17;20.60;98460.91;6259946;27;96716;-68
2022/06/22 11:08:32;;;;;;;;;3.00;2.00;;;;;32.95;19.69;98465.41;6261149;27;97466;-68
2022/06/22 11:11:54;;;;;;;;;1.00;1.00;;;;;32.88;19.66;98460.53;6244489;27;97767;-67
2022/06/22 11:15:33;;;;;;;;;2.00;2.00;;;;;32.99;19.71;98457.84;6223713;27;97834;-67
2022/06/22 11:19:03;;;;;;;;;1.00;1.00;;;;;32.97;19.48;98449.06;6262012;27;97177;-66
2022/06/22 11:22:20;;;;;;;;;2.00;1.20;;;;;33.27;20.21;98463.03;6234723;27;96835;-66
2022/06/22 11:33:22;;;;;;;;;3.00;2.00;;;;;33.60;19.44;98460.19;6237237;27;97591;-68
2022/06/22 11:36:40;;;;;;;;;2.00;2.00;;;;;33.75;20.15;98449.97;6248290;27;96624;-67
2022/06/22 11:40:36;;;;;;;;;1.00;1.00;;;;;33.89;19.21;98458.47;6239349;27;97236;-68
2022/06/22 11:43:56;;;;;;;;;2.25;2.00;;;;;33.75;19.38;98458.34;6242192;27;98336;-67
2022/06/22 11:47:06;;;;;;;;;3.00;2.00;;;;;33.73;19.46;98455.13;6229285;28;99604;-69
2022/06/22 11:50:23;;;;;;;;;1.20;1.00;;;;;33.76;19.45;98460.78;6250592;27;96881;-69
2022/06/22 11:53:46;;;;;;;;;2.00;2.00;;;;;33.86;19.89;98459.25;6233726;27;96748;-68
2022/06/22 11:57:09;;;;;;;;;2.00;2.00;;;;;33.63;19.05;98431.44;6261124;27;97171;-67
2022/06/22 12:00:23;;;;;;;;;2.00;2.00;;;;;33.76;19.33;98457.16;6241811;27;97203;-67
2022/06/22 12:03:47;;;;;;;;;1.00;1.00;;;;;33.82;19.42;98459.22;6243732;27;96887;-69
2022/06/22 12:07:18;;;;;;;;;2.00;2.00;;;;;33.85;19.17;98460.44;6243020;27;97933;-69
2022/06/22 12:10:41;;;;;;;;;1.00;1.00;;;;;33.92;20.00;98452.91;6256253;27;97568;-67
2022/06/22 12:17:35;;;;;;;;;1.75;1.75;;;;;33.53;20.17;98459.31;6252221;27;97887;-66
2022/06/22 12:20:51;;;;;;;;;1.80;1.80;;;;;33.18;19.85;98451.34;6260838;27;97906;-66
2022/06/22 12:24:02;;;;;;;;;2.00;2.00;;;;;33.18;19.78;98468.94;6261265;27;96490;-68
2022/06/22 12:27:13;;;;;;;;;2.00;2.00;;;;;33.12;20.37;98453.66;6242905;27;97411;-66
2022/06/22 12:30:29;;;;;;;;;2.00;2.00;;;;;33.20;20.20;98462.94;6230429;27;96664;-66
2022/06/22 12:33:40;;;;;;;;;1.00;1.00;;;;;33.18;20.08;98465.31;6261340;27;96830;-68
2022/06/22 12:36:48;;;;;;;;;1.00;1.00;;;;;33.34;19.78;98477.06;6241072;27;97457;-66
2022/06/22 12:40:02;;;;;;;;;1.00;1.00;;;;;33.32;19.90;98460.69;6237276;27;96726;-67
2022/06/22 12:43:25;;;;;;;;;2.00;2.00;;;;;33.07;19.62;98460.38;6234314;27;97635;-66
2022/06/22 12:46:44;;;;;;;;;3.20;3.00;;;;;33.22;19.29;98452.19;6259926;27;97240;-69
2022/06/22 12:50:03;;;;;;;;;3.40;3.00;;;;;33.27;19.81;98455.44;6257725;27;97292;-66
2022/06/22 12:53:11;;;;;;;;;3.00;2.00;;;;;33.14;19.91;98433.69;6262147;27;96582;-68
2022/06/22 12:56:20;;;;;;;;;2.00;2.00;;;;;33.22;19.11;98453.00;6255951;27;97751;-69
2022/06/22 12:59:29;;;;;;;;;2.00;2.00;;;;;33.16;20.06;98453.72;6252173;27;97036;-67
2022/06/22 13:02:36;;;;;;;;;2.00;2.00;;;;;33.28;19.65;98451.44;6223069;27;98775;-68
2022/06/22 13:05:40;;;;;;;;;3.00;2.40;;;;;33.35;20.05;98440.38;6259428;27;97110;-67
2022/06/22 13:08:45;;;;;;;;;2.60;2.00;;;;;33.55;20.25;98437.34;6230653;27;97803;-67
2022/06/22 13:11:50;;;;;;;;;1.00;1.00;;;;;33.16;19.03;98432.19;6263631;27;96867;-68
2022/06/22 13:14:58;;;;;;;;;2.00;2.00;;;;;32.97;19.71;98433.13;6243454;27;96647;-67
2022/06/22 13:18:20;;;;;;;;;2.00;1.00;;;;;33.05;20.15;98428.41;6264007;27;98026;-69
2022/06/22 13:21:28;;;;;;;;;2.00;2.00;;;;;33.05;19.70;98429.22;6245992;27;97265;-67
2022/06/22 13:24:39;;;;;;;;;2.00;2.00;;;;;32.90;20.10;98435.00;6239973;27;96686;-68
2022/06/22 13:27:52;;;;;;;;;2.00;2.00;;;;;32.82;20.09;98416.56;6257264;27;97304;-67
2022/06/22 13:30:59;;;;;;;;;3.00;2.00;;;;;32.80;20.10;98422.53;6244686;27;99397;-67
2022/06/22 13:34:06;;;;;;;;;1.00;1.00;;;;;32.95;20.08;98417.91;6238390;27;96844;-68
2022/06/22 13:37:23;;;;;;;;;3.00;3.00;;;;;32.97;19.84;98408.00;6232851;27;98448;-68
2022/06/22 13:40:35;;;;;;;;;1.80;1.80;;;;;33.14;20.42;98423.31;6257142;27;97974;-66
2022/06/22 13:44:07;;;;;;;;;3.40;3.00;;;;;33.02;20.43;98427.19;6239148;27;97304;-69
2022/06/22 13:47:44;;;;;;;;;3.00;3.00;;;;;32.99;20.41;98430.75;6221884;27;98554;-68
2022/06/22 13:51:08;;;;;;;;;1.00;1.00;;;;;33.01;20.14;98442.34;6236778;27;98453;-69
2022/06/22 13:54:32;;;;;;;;;2.60;2.60;;;;;32.82;19.86;98422.16;6227654;27;97325;-69
2022/06/22 13:57:42;;;;;;;;;3.00;2.00;;;;;32.60;20.20;98435.81;6243061;27;97245;-66
2022/06/22 14:00:55;;;;;;;;;1.00;1.00;;;;;32.64;20.92;98428.34;6259732;27;97303;-67
2022/06/22 14:04:05;;;;;;;;;2.00;2.00;;;;;32.47;19.99;98395.38;6241846;27;96810;-65
2022/06/22 14:07:14;;;;;;;;;2.00;2.00;;;;;32.57;21.18;98430.19;6263316;27;97300;-67
2022/06/22 14:10:27;;;;;;;;;2.00;2.00;;;;;32.62;20.40;98432.63;6248131;27;100107;-67
2022/06/22 14:13:56;;;;;;;;;2.00;2.00;;;;;32.70;20.70;98439.13;6253055;27;97398;-66
2022/06/22 14:17:08;;;;;;;;;2.00;2.00;;;;;32.76;20.60;98424.47;6255678;27;97453;-69
2022/06/22 14:20:17;;;;;;;;;4.00;4.00;;;;;32.59;20.13;98408.28;6244612;27;97027;-67
2022/06/22 14:23:21;;;;;;;;;2.00;2.00;;;;;32.65;19.90;98421.53;6257996;27;98439;-66
2022/06/22 14:26:49;;;;;;;;;3.00;3.00;;;;;32.52;20.16;98420.16;6258210;27;96654;-67
2022/06/22 14:30:14;;;;;;;;;2.00;2.00;;;;;32.55;20.00;98410.22;6242199;27;99938;-66
2022/06/22 14:33:30;;;;;;;;;1.60;1.60;;;;;32.45;19.67;98417.25;6248897;27;96636;-66
2022/06/22 14:36:40;;;;;;;;;4.00;3.60;;;;;32.39;19.45;98431.94;6224943;27;99615;-68
2022/06/22 14:39:50;;;;;;;;;3.00;2.00;;;;;32.34;19.82;98410.75;6239379;27;96766;-68
2022/06/22 14:43:01;;;;;;;;;2.00;2.00;;;;;32.14;20.63;98410.06;6238087;27;97274;-68
2022/06/22 14:46:13;;;;;;;;;2.00;2.00;;;;;32.03;20.37;98416.59;6239689;27;97264;-66
2022/06/22 14:49:22;;;;;;;;;1.80;1.40;;;;;31.81;20.23;98413.47;6256706;27;97523;-66
2022/06/22 14:52:39;;;;;;;;;2.00;2.00;;;;;31.60;20.52;98403.97;6259318;27;97491;-68
2022/06/22 14:55:48;;;;;;;;;2.00;2.00;;;;;31.52;20.80;98408.56;6257701;27;97294;-67
2022/06/22 14:58:58;;;;;;;;;2.00;1.00;;;;;31.51;21.56;98406.97;6242135;27;97227;-66
2022/06/22 15:02:12;;;;;;;;;3.00;3.00;;;;;31.62;22.29;98393.25;6257463;27;97140;-68
2022/06/22 15:05:21;;;;;;;;;2.00;2.00;;;;;31.52;21.08;98391.84;6259846;27;96607;-68
2022/06/22 15:08:31;;;;;;;;;3.00;2.50;;;;;31.59;21.37;98393.97;6257741;27;97060;-67
2022/06/22 15:15:13;;;;;;;;;2.00;2.00;;;;;31.49;21.40;98387.03;6258510;27;97046;-67
2022/06/22 15:18:32;;;;;;;;;2.40;2.40;;;;;31.50;21.77;98393.41;6256684;27;96435;-66
2022/06/22 15:21:41;;;;;;;;;2.00;2.00;;;;;31.49;21.93;98397.34;6261943;27;96977;-68
2022/06/22 15:25:13;;;;;;;;;2.00;2.00;;;;;31.60;22.10;98390.84;6254426;27;96877;-68
2022/06/22 15:28:23;;;;;;;;;2.00;2.00;;;;;31.53;21.36;98387.88;6252361;27;96748;-66
2022/06/22 15:31:52;;;;;;;;;2.00;2.00;;;;;31.50;21.68;98385.03;6262126;27;96622;-68
2022/06/22 15:35:01;;;;;;;;;3.00;3.00;;;;;31.47;21.30;98388.59;6258871;27;96624;-66